sensor_id;sensor_type;location;lat;lon;timestamp;pressure;altitude;pressure_sealevel;temperature;humidity
65019;BME280;66069;51.164;-114.452;2023-01-28T00:00:19;88270.41;;;18.13;45.78
65019;BME280;66069;51.164;-114.452;2023-01-28T00:02:46;88280.25;;;18.16;46.01
65019;BME280;66069;51.164;-114.452;2023-01-28T00:05:14;88261.03;;;18.01;45.83
65019;BME280;66069;51.164;-114.452;2023-01-28T00:07:41;88275.38;;;18.07;45.99
65019;BME280;66069;51.164;-114.452;2023-01-28T00:10:11;88283.72;;;18.09;45.71
65019;BME280;66069;51.164;-114.452;2023-01-28T00:12:37;88288.28;;;18.09;45.85
65019;BME280;66069;51.164;-114.452;2023-01-28T00:15:04;88298.16;;;18.08;45.74
65019;BME280;66069;51.164;-114.452;2023-01-28T00:17:30;88320.41;;;18.18;45.88
65019;BME280;66069;51.164;-114.452;2023-01-28T00:19:56;88318.91;;;18.13;45.95
65019;BME280;66069;51.164;-114.452;2023-01-28T00:22:23;88330.28;;;18.17;46.03
65019;BME280;66069;51.164;-114.452;2023-01-28T00:24:52;88334.41;;;18.18;45.87
65019;BME280;66069;51.164;-114.452;2023-01-28T00:27:22;88339.03;;;18.14;46.10
65019;BME280;66069;51.164;-114.452;2023-01-28T00:29:48;88345.44;;;18.17;45.70
65019;BME280;66069;51.164;-114.452;2023-01-28T00:32:20;88349.59;;;18.18;45.90
65019;BME280;66069;51.164;-114.452;2023-01-28T00:34:46;88341.63;;;18.18;45.80
65019;BME280;66069;51.164;-114.452;2023-01-28T00:37:14;88325.03;;;18.07;45.88
65019;BME280;66069;51.164;-114.452;2023-01-28T00:39:50;88349.97;;;18.20;45.75
65019;BME280;66069;51.164;-114.452;2023-01-28T00:42:19;88348.06;;;18.20;45.78
65019;BME280;66069;51.164;-114.452;2023-01-28T00:44:45;88348.06;;;18.20;45.79
65019;BME280;66069;51.164;-114.452;2023-01-28T00:47:15;88357.94;;;18.20;45.74
65019;BME280;66069;51.164;-114.452;2023-01-28T00:49:45;88323.22;;;18.00;45.85
65019;BME280;66069;51.164;-114.452;2023-01-28T00:52:12;88352.31;;;18.11;45.65
65019;BME280;66069;51.164;-114.452;2023-01-28T00:54:38;88353.41;;;18.17;45.55
65019;BME280;66069;51.164;-114.452;2023-01-28T00:57:05;88356.81;;;18.17;45.64
65019;BME280;66069;51.164;-114.452;2023-01-28T00:59:32;88365.91;;;18.20;45.79
65019;BME280;66069;51.164;-114.452;2023-01-28T01:01:59;88356.06;;;18.13;45.85
65019;BME280;66069;51.164;-114.452;2023-01-28T01:04:38;88360.69;;;18.09;45.81
65019;BME280;66069;51.164;-114.452;2023-01-28T01:07:05;88373.88;;;18.20;45.66
65019;BME280;66069;51.164;-114.452;2023-01-28T01:09:31;88371.63;;;18.15;45.86
65019;BME280;66069;51.164;-114.452;2023-01-28T01:12:01;88361.78;;;18.12;45.68
65019;BME280;66069;51.164;-114.452;2023-01-28T01:14:28;88370.81;;;18.18;45.75
65019;BME280;66069;51.164;-114.452;2023-01-28T01:20:21;88374.28;;;18.15;45.69
65019;BME280;66069;51.164;-114.452;2023-01-28T01:22:48;88388.25;;;18.19;45.67
65019;BME280;66069;51.164;-114.452;2023-01-28T01:25:15;88367.13;;;18.08;45.71
65019;BME280;66069;51.164;-114.452;2023-01-28T01:27:42;88376.88;;;18.18;45.57
65019;BME280;66069;51.164;-114.452;2023-01-28T01:30:11;88373.16;;;18.12;45.89
65019;BME280;66069;51.164;-114.452;2023-01-28T01:32:37;88368.22;;;18.14;45.65
65019;BME280;66069;51.164;-114.452;2023-01-28T01:35:05;88377.28;;;18.17;45.63
65019;BME280;66069;51.164;-114.452;2023-01-28T01:37:36;88392.06;;;18.18;45.70
65019;BME280;66069;51.164;-114.452;2023-01-28T01:40:03;88393.59;;;18.15;45.85
65019;BME280;66069;51.164;-114.452;2023-01-28T01:42:33;88397.38;;;18.18;45.75
65019;BME280;66069;51.164;-114.452;2023-01-28T01:45:11;88407.59;;;18.19;45.72
65019;BME280;66069;51.164;-114.452;2023-01-28T01:47:49;88412.16;;;18.19;45.68
65019;BME280;66069;51.164;-114.452;2023-01-28T01:50:36;88418.97;;;18.20;45.78
65019;BME280;66069;51.164;-114.452;2023-01-28T01:53:16;88414.78;;;18.19;45.82
65019;BME280;66069;51.164;-114.452;2023-01-28T01:55:49;88425.47;;;18.15;45.75
65019;BME280;66069;51.164;-114.452;2023-01-28T01:58:20;88433.75;;;18.21;45.64
65019;BME280;66069;51.164;-114.452;2023-01-28T02:00:47;88434.13;;;18.19;45.74
65019;BME280;66069;51.164;-114.452;2023-01-28T02:03:13;88437.91;;;18.22;45.76
65019;BME280;66069;51.164;-114.452;2023-01-28T02:05:45;88432.28;;;18.16;45.85
65019;BME280;66069;51.164;-114.452;2023-01-28T02:08:11;88449.69;;;18.17;45.79
65019;BME280;66069;51.164;-114.452;2023-01-28T02:10:55;88466.72;;;18.23;45.58
65019;BME280;66069;51.164;-114.452;2023-01-28T02:13:27;88457.66;;;18.17;45.62
65019;BME280;66069;51.164;-114.452;2023-01-28T02:15:56;88467.88;;;18.22;45.79
65019;BME280;66069;51.164;-114.452;2023-01-28T02:18:24;88461.81;;;18.22;45.93
65019;BME280;66069;51.164;-114.452;2023-01-28T02:21:17;88459.50;;;18.24;45.72
65019;BME280;66069;51.164;-114.452;2023-01-28T02:27:05;88450.06;;;18.19;45.95
65019;BME280;66069;51.164;-114.452;2023-01-28T02:32:42;88453.78;;;18.29;46.31
65019;BME280;66069;51.164;-114.452;2023-01-28T02:35:11;88467.81;;;18.29;46.43
65019;BME280;66069;51.164;-114.452;2023-01-28T02:40:32;88479.53;;;18.32;46.45
65019;BME280;66069;51.164;-114.452;2023-01-28T02:43:35;88480.34;;;18.29;46.69
65019;BME280;66069;51.164;-114.452;2023-01-28T02:49:22;88487.19;;;18.26;46.67
65019;BME280;66069;51.164;-114.452;2023-01-28T02:55:08;88514.03;;;18.32;46.67
65019;BME280;66069;51.164;-114.452;2023-01-28T02:57:53;88509.06;;;18.38;46.68
65019;BME280;66069;51.164;-114.452;2023-01-28T03:00:37;88515.13;;;18.42;46.45
65019;BME280;66069;51.164;-114.452;2023-01-28T03:06:09;88518.56;;;18.39;46.47
65019;BME280;66069;51.164;-114.452;2023-01-28T03:08:51;88528.81;;;18.40;46.82
65019;BME280;66069;51.164;-114.452;2023-01-28T03:12:17;88526.56;;;18.35;46.58
65019;BME280;66069;51.164;-114.452;2023-01-28T03:15:07;88536.78;;;18.40;46.46
65019;BME280;66069;51.164;-114.452;2023-01-28T03:21:05;88541.34;;;18.36;46.58
65019;BME280;66069;51.164;-114.452;2023-01-28T03:24:10;88556.84;;;18.45;46.58
65019;BME280;66069;51.164;-114.452;2023-01-28T03:30:21;88552.28;;;18.45;46.33
65019;BME280;66069;51.164;-114.452;2023-01-28T03:33:08;88560.97;;;18.49;46.50
65019;BME280;66069;51.164;-114.452;2023-01-28T03:35:56;88555.31;;;18.44;46.26
65019;BME280;66069;51.164;-114.452;2023-01-28T03:38:42;88570.84;;;18.49;46.53
65019;BME280;66069;51.164;-114.452;2023-01-28T03:41:20;88579.19;;;18.51;46.63
65019;BME280;66069;51.164;-114.452;2023-01-28T03:43:47;88587.16;;;18.51;46.38
65019;BME280;66069;51.164;-114.452;2023-01-28T03:46:26;88590.94;;;18.50;46.36
65019;BME280;66069;51.164;-114.452;2023-01-28T03:48:55;88604.19;;;18.53;46.29
65019;BME280;66069;51.164;-114.452;2023-01-28T03:51:21;88593.19;;;18.55;46.06
65019;BME280;66069;51.164;-114.452;2023-01-28T03:53:48;88601.13;;;18.59;45.96
65019;BME280;66069;51.164;-114.452;2023-01-28T03:56:14;88577.72;;;18.43;45.97
65019;BME280;66069;51.164;-114.452;2023-01-28T03:58:43;88606.06;;;18.60;46.13
65019;BME280;66069;51.164;-114.452;2023-01-28T04:01:20;88606.44;;;18.59;46.16
65019;BME280;66069;51.164;-114.452;2023-01-28T04:03:47;88606.13;;;18.49;46.17
65019;BME280;66069;51.164;-114.452;2023-01-28T04:06:13;88615.94;;;18.60;46.34
65019;BME280;66069;51.164;-114.452;2023-01-28T04:08:40;88615.94;;;18.56;46.37
65019;BME280;66069;51.164;-114.452;2023-01-28T04:11:16;88631.06;;;18.63;46.08
65019;BME280;66069;51.164;-114.452;2023-01-28T04:13:45;88622.34;;;18.62;45.90
65019;BME280;66069;51.164;-114.452;2023-01-28T04:16:13;88638.66;;;18.68;45.85
65019;BME280;66069;51.164;-114.452;2023-01-28T04:18:41;88616.34;;;18.54;45.83
65019;BME280;66069;51.164;-114.452;2023-01-28T04:21:08;88637.50;;;18.69;46.00
65019;BME280;66069;51.164;-114.452;2023-01-28T04:23:34;88633.38;;;18.64;45.90
65019;BME280;66069;51.164;-114.452;2023-01-28T04:26:01;88647.38;;;18.68;46.01
65019;BME280;66069;51.164;-114.452;2023-01-28T04:28:30;88660.66;;;18.68;45.81
65019;BME280;66069;51.164;-114.452;2023-01-28T04:30:57;88646.28;;;18.59;45.86
65019;BME280;66069;51.164;-114.452;2023-01-28T04:33:23;88662.94;;;18.63;45.77
65019;BME280;66069;51.164;-114.452;2023-01-28T04:35:49;88670.88;;;18.73;45.54
65019;BME280;66069;51.164;-114.452;2023-01-28T04:38:16;88670.88;;;18.73;45.68
65019;BME280;66069;51.164;-114.452;2023-01-28T04:40:42;88673.59;;;18.70;45.66
65019;BME280;66069;51.164;-114.452;2023-01-28T04:43:08;88672.44;;;18.67;45.58
65019;BME280;66069;51.164;-114.452;2023-01-28T04:45:35;88677.72;;;18.74;45.66
65019;BME280;66069;51.164;-114.452;2023-01-28T04:48:01;88682.28;;;18.74;45.70
65019;BME280;66069;51.164;-114.452;2023-01-28T04:50:27;88684.53;;;18.75;45.90
65019;BME280;66069;51.164;-114.452;2023-01-28T04:52:54;88678.50;;;18.64;45.95
65019;BME280;66069;51.164;-114.452;2023-01-28T04:55:20;88691.78;;;18.71;45.90
65019;BME280;66069;51.164;-114.452;2023-01-28T04:57:46;88694.44;;;18.71;45.64
65019;BME280;66069;51.164;-114.452;2023-01-28T05:00:16;88697.09;;;18.71;45.84
65019;BME280;66069;51.164;-114.452;2023-01-28T05:02:42;88697.09;;;18.68;45.86
65019;BME280;66069;51.164;-114.452;2023-01-28T05:05:12;88692.94;;;18.70;45.85
65019;BME280;66069;51.164;-114.452;2023-01-28T05:07:38;88699.75;;;18.68;45.79
65019;BME280;66069;51.164;-114.452;2023-01-28T05:10:05;88703.16;;;18.68;45.72
65019;BME280;66069;51.164;-114.452;2023-01-28T05:12:31;88708.88;;;18.67;45.83
65019;BME280;66069;51.164;-114.452;2023-01-28T05:14:59;88698.66;;;18.58;45.73
65019;BME280;66069;51.164;-114.452;2023-01-28T05:17:27;88689.59;;;18.52;45.58
65019;BME280;66069;51.164;-114.452;2023-01-28T05:19:53;88714.59;;;18.58;45.61
65019;BME280;66069;51.164;-114.452;2023-01-28T05:22:19;88718.03;;;18.51;45.53
65019;BME280;66069;51.164;-114.452;2023-01-28T05:24:46;88683.59;;;18.34;45.45
65019;BME280;66069;51.164;-114.452;2023-01-28T05:27:12;88721.09;;;18.46;45.33
65019;BME280;66069;51.164;-114.452;2023-01-28T05:29:39;88711.25;;;18.36;45.53
65019;BME280;66069;51.164;-114.452;2023-01-28T05:32:05;88724.91;;;18.42;45.47
65019;BME280;66069;51.164;-114.452;2023-01-28T05:34:32;88724.16;;;18.34;45.28
65019;BME280;66069;51.164;-114.452;2023-01-28T05:37:02;88725.28;;;18.37;45.34
65019;BME280;66069;51.164;-114.452;2023-01-28T05:39:29;88727.22;;;18.33;45.26
65019;BME280;66069;51.164;-114.452;2023-01-28T05:41:56;88732.53;;;18.33;45.19
65019;BME280;66069;51.164;-114.452;2023-01-28T05:44:22;88733.28;;;18.33;45.20
65019;BME280;66069;51.164;-114.452;2023-01-28T05:46:49;88737.09;;;18.28;45.26
65019;BME280;66069;51.164;-114.452;2023-01-28T05:49:15;88740.09;;;18.30;45.25
65019;BME280;66069;51.164;-114.452;2023-01-28T05:51:41;88741.28;;;18.22;45.17
65019;BME280;66069;51.164;-114.452;2023-01-28T05:54:08;88759.47;;;18.24;45.17
65019;BME280;66069;51.164;-114.452;2023-01-28T05:56:35;88763.66;;;18.21;44.97
65019;BME280;66069;51.164;-114.452;2023-01-28T05:59:02;88775.78;;;18.22;45.13
65019;BME280;66069;51.164;-114.452;2023-01-28T06:01:30;88756.81;;;18.17;45.09
65019;BME280;66069;51.164;-114.452;2023-01-28T06:04:14;88760.25;;;18.14;45.02
65019;BME280;66069;51.164;-114.452;2023-01-28T06:06:57;88775.41;;;18.13;44.95
65019;BME280;66069;51.164;-114.452;2023-01-28T06:09:23;88751.16;;;18.00;44.97
65019;BME280;66069;51.164;-114.452;2023-01-28T06:11:50;88780.72;;;18.13;45.03
65019;BME280;66069;51.164;-114.452;2023-01-28T06:14:16;88775.41;;;18.06;44.79
65019;BME280;66069;51.164;-114.452;2023-01-28T06:16:42;88776.94;;;18.07;44.93
65019;BME280;66069;51.164;-114.452;2023-01-28T06:19:09;88782.66;;;18.02;44.90
65019;BME280;66069;51.164;-114.452;2023-01-28T06:21:35;88772.78;;;17.99;44.93
65019;BME280;66069;51.164;-114.452;2023-01-28T06:24:02;88779.25;;;18.01;44.84
65019;BME280;66069;51.164;-114.452;2023-01-28T06:26:28;88781.53;;;17.96;44.95
65019;BME280;66069;51.164;-114.452;2023-01-28T06:28:54;88783.78;;;17.97;44.85
65019;BME280;66069;51.164;-114.452;2023-01-28T06:31:21;88796.31;;;17.97;44.88
65019;BME280;66069;51.164;-114.452;2023-01-28T06:33:47;88780.75;;;17.81;44.84
65019;BME280;66069;51.164;-114.452;2023-01-28T06:36:14;88796.69;;;17.92;44.71
65019;BME280;66069;51.164;-114.452;2023-01-28T06:38:41;88805.78;;;17.91;44.83
65019;BME280;66069;51.164;-114.452;2023-01-28T06:41:07;88786.06;;;17.81;44.86
65019;BME280;66069;51.164;-114.452;2023-01-28T06:43:33;88793.66;;;17.83;44.76
65019;BME280;66069;51.164;-114.452;2023-01-28T06:45:59;88798.94;;;17.86;44.62
65019;BME280;66069;51.164;-114.452;2023-01-28T06:48:27;88792.50;;;17.80;44.63
65019;BME280;66069;51.164;-114.452;2023-01-28T06:50:53;88771.66;;;17.64;44.69
65019;BME280;66069;51.164;-114.452;2023-01-28T06:53:20;88783.41;;;17.70;44.65
65019;BME280;66069;51.164;-114.452;2023-01-28T06:55:47;88796.69;;;17.78;44.74
65019;BME280;66069;51.164;-114.452;2023-01-28T06:58:13;88799.69;;;17.76;44.68
65019;BME280;66069;51.164;-114.452;2023-01-28T07:00:39;88800.81;;;17.68;44.49
65019;BME280;66069;51.164;-114.452;2023-01-28T07:03:06;88816.41;;;17.73;44.51
65019;BME280;66069;51.164;-114.452;2023-01-28T07:05:32;88792.50;;;17.55;44.77
65019;BME280;66069;51.164;-114.452;2023-01-28T07:07:58;88796.28;;;17.61;44.51
65019;BME280;66069;51.164;-114.452;2023-01-28T07:10:27;88809.16;;;17.66;44.47
65019;BME280;66069;51.164;-114.452;2023-01-28T07:12:53;88809.53;;;17.61;44.63
65019;BME280;66069;51.164;-114.452;2023-01-28T07:15:20;88809.91;;;17.63;44.55
65019;BME280;66069;51.164;-114.452;2023-01-28T07:17:46;88799.31;;;17.53;44.67
65019;BME280;66069;51.164;-114.452;2023-01-28T07:20:14;88812.56;;;17.60;44.48
65019;BME280;66069;51.164;-114.452;2023-01-28T07:22:41;88803.84;;;17.48;44.50
65019;BME280;66069;51.164;-114.452;2023-01-28T07:25:09;88814.81;;;17.50;44.53
65019;BME280;66069;51.164;-114.452;2023-01-28T07:27:36;88824.31;;;17.52;44.54
65019;BME280;66069;51.164;-114.452;2023-01-28T07:30:03;88823.91;;;17.49;44.58
65019;BME280;66069;51.164;-114.452;2023-01-28T07:32:29;88820.13;;;17.50;44.50
65019;BME280;66069;51.164;-114.452;2023-01-28T07:34:55;88809.91;;;17.45;44.35
65019;BME280;66069;51.164;-114.452;2023-01-28T07:37:22;88812.53;;;17.38;44.48
65019;BME280;66069;51.164;-114.452;2023-01-28T07:39:48;88820.13;;;17.36;44.29
65019;BME280;66069;51.164;-114.452;2023-01-28T07:42:14;88817.47;;;17.29;44.56
65019;BME280;66069;51.164;-114.452;2023-01-28T07:44:42;88847.03;;;17.42;44.38
65019;BME280;66069;51.164;-114.452;2023-01-28T07:47:09;88840.59;;;17.39;44.32
65019;BME280;66069;51.164;-114.452;2023-01-28T07:49:35;88830.34;;;17.27;44.40
65019;BME280;66069;51.164;-114.452;2023-01-28T07:52:05;88823.91;;;17.21;44.27
65019;BME280;66069;51.164;-114.452;2023-01-28T07:54:31;88843.59;;;17.34;44.33
65019;BME280;66069;51.164;-114.452;2023-01-28T07:56:57;88827.28;;;17.18;44.30
65019;BME280;66069;51.164;-114.452;2023-01-28T07:59:24;88848.13;;;17.27;44.39
65019;BME280;66069;51.164;-114.452;2023-01-28T08:01:50;88853.81;;;17.29;44.42
65019;BME280;66069;51.164;-114.452;2023-01-28T08:04:19;88847.75;;;17.21;44.45
65019;BME280;66069;51.164;-114.452;2023-01-28T08:06:45;88836.34;;;17.13;44.31
65019;BME280;66069;51.164;-114.452;2023-01-28T08:09:11;88845.44;;;17.19;44.21
65019;BME280;66069;51.164;-114.452;2023-01-28T08:11:38;88857.22;;;17.22;44.20
65019;BME280;66069;51.164;-114.452;2023-01-28T08:14:05;88861.34;;;17.19;44.57
65019;BME280;66069;51.164;-114.452;2023-01-28T08:16:31;88851.50;;;17.09;44.28
65019;BME280;66069;51.164;-114.452;2023-01-28T08:18:58;88827.22;;;16.89;44.34
65019;BME280;66069;51.164;-114.452;2023-01-28T08:21:24;88845.78;;;17.00;44.38
65019;BME280;66069;51.164;-114.452;2023-01-28T08:23:50;88872.69;;;17.13;44.31
65019;BME280;66069;51.164;-114.452;2023-01-28T08:26:16;88865.13;;;17.11;44.18
65019;BME280;66069;51.164;-114.452;2023-01-28T08:28:43;88864.75;;;17.09;44.25
65019;BME280;66069;51.164;-114.452;2023-01-28T08:31:09;88852.59;;;16.98;44.30
65019;BME280;66069;51.164;-114.452;2023-01-28T08:33:35;88865.84;;;17.01;44.24
65019;BME280;66069;51.164;-114.452;2023-01-28T08:36:02;88853.72;;;16.97;44.22
65019;BME280;66069;51.164;-114.452;2023-01-28T08:38:29;88857.91;;;16.98;44.42
65019;BME280;66069;51.164;-114.452;2023-01-28T08:40:56;88862.44;;;16.97;44.11
65019;BME280;66069;51.164;-114.452;2023-01-28T08:43:23;88866.22;;;17.00;44.15
65019;BME280;66069;51.164;-114.452;2023-01-28T08:45:49;88855.94;;;16.84;44.11
65019;BME280;66069;51.164;-114.452;2023-01-28T08:48:17;88875.69;;;16.97;44.19
65019;BME280;66069;51.164;-114.452;2023-01-28T08:50:44;88871.13;;;16.94;44.17
65019;BME280;66069;51.164;-114.452;2023-01-28T08:53:13;88880.19;;;16.93;44.13
65019;BME280;66069;51.164;-114.452;2023-01-28T08:55:40;88869.94;;;16.81;44.06
65019;BME280;66069;51.164;-114.452;2023-01-28T08:58:10;88883.19;;;16.88;44.20
65019;BME280;66069;51.164;-114.452;2023-01-28T09:00:37;88893.78;;;16.88;44.08
65019;BME280;66069;51.164;-114.452;2023-01-28T09:03:04;88883.56;;;16.79;44.00
65019;BME280;66069;51.164;-114.452;2023-01-28T09:05:31;88875.94;;;16.71;44.14
65019;BME280;66069;51.164;-114.452;2023-01-28T09:08:03;88900.22;;;16.83;44.23
65019;BME280;66069;51.164;-114.452;2023-01-28T09:10:30;88898.28;;;16.73;44.21
65019;BME280;66069;51.164;-114.452;2023-01-28T09:12:57;88905.47;;;16.76;44.21
65019;BME280;66069;51.164;-114.452;2023-01-28T09:15:23;88918.34;;;16.78;44.17
65019;BME280;66069;51.164;-114.452;2023-01-28T09:17:55;88910.00;;;16.76;44.17
65019;BME280;66069;51.164;-114.452;2023-01-28T09:20:21;88920.19;;;16.70;44.10
65019;BME280;66069;51.164;-114.452;2023-01-28T09:22:48;88910.31;;;16.67;43.95
65019;BME280;66069;51.164;-114.452;2023-01-28T09:25:14;88917.53;;;16.70;44.18
65019;BME280;66069;51.164;-114.452;2023-01-28T09:27:40;88930.00;;;16.69;44.14
65019;BME280;66069;51.164;-114.452;2023-01-28T09:30:07;88922.44;;;16.68;44.05
65019;BME280;66069;51.164;-114.452;2023-01-28T09:32:35;88927.34;;;16.66;44.19
65019;BME280;66069;51.164;-114.452;2023-01-28T09:35:02;88895.44;;;16.45;44.15
65019;BME280;66069;51.164;-114.452;2023-01-28T09:37:28;88937.53;;;16.60;44.11
65019;BME280;66069;51.164;-114.452;2023-01-28T09:39:54;88939.03;;;16.61;44.10
65019;BME280;66069;51.164;-114.452;2023-01-28T09:45:12;88950.38;;;16.58;44.02
65019;BME280;66069;51.164;-114.452;2023-01-28T09:47:50;88932.09;;;16.42;44.08
65019;BME280;66069;51.164;-114.452;2023-01-28T09:50:32;88950.34;;;16.55;44.10
65019;BME280;66069;51.164;-114.452;2023-01-28T09:53:11;88927.16;;;16.37;43.97
65019;BME280;66069;51.164;-114.452;2023-01-28T09:55:40;88965.09;;;16.52;44.04
65019;BME280;66069;51.164;-114.452;2023-01-28T09:58:15;88963.91;;;16.50;44.07
65019;BME280;66069;51.164;-114.452;2023-01-28T10:14:38;88952.06;;;16.29;43.88
65019;BME280;66069;51.164;-114.452;2023-01-28T10:17:26;88938.75;;;16.19;44.02
65019;BME280;66069;51.164;-114.452;2023-01-28T10:20:01;88963.81;;;16.35;43.97
65019;BME280;66069;51.164;-114.452;2023-01-28T10:22:41;88949.72;;;16.21;44.06
65019;BME280;66069;51.164;-114.452;2023-01-28T10:25:34;88955.78;;;16.21;43.95
65019;BME280;66069;51.164;-114.452;2023-01-28T10:28:01;88968.69;;;16.30;44.00
65019;BME280;66069;51.164;-114.452;2023-01-28T10:30:32;88950.00;;;16.08;43.96
65019;BME280;66069;51.164;-114.452;2023-01-28T10:33:37;88969.38;;;16.20;44.02
65019;BME280;66069;51.164;-114.452;2023-01-28T10:36:05;88968.22;;;16.17;44.19
65019;BME280;66069;51.164;-114.452;2023-01-28T10:38:32;88972.38;;;16.18;44.15
65019;BME280;66069;51.164;-114.452;2023-01-28T10:41:03;88967.03;;;16.14;43.95
65019;BME280;66069;51.164;-114.452;2023-01-28T10:43:32;88986.38;;;16.19;43.96
65019;BME280;66069;51.164;-114.452;2023-01-28T10:46:28;88966.97;;;16.04;43.97
65019;BME280;66069;51.164;-114.452;2023-01-28T10:51:37;88984.44;;;16.12;43.81
65019;BME280;66069;51.164;-114.452;2023-01-28T10:54:21;88974.59;;;16.09;43.84
65019;BME280;66069;51.164;-114.452;2023-01-28T10:56:51;88966.94;;;16.00;43.90
65019;BME280;66069;51.164;-114.452;2023-01-28T10:59:29;88986.69;;;16.10;43.77
65019;BME280;66069;51.164;-114.452;2023-01-28T11:02:04;88984.38;;;16.08;44.10
65019;BME280;66069;51.164;-114.452;2023-01-28T11:04:44;88990.03;;;16.07;43.92
65019;BME280;66069;51.164;-114.452;2023-01-28T11:07:19;88977.47;;;15.93;43.86
65019;BME280;66069;51.164;-114.452;2023-01-28T11:09:50;88980.09;;;15.93;44.05
65019;BME280;66069;51.164;-114.452;2023-01-28T11:12:22;88987.72;;;16.02;43.75
65019;BME280;66069;51.164;-114.452;2023-01-28T11:14:56;88977.09;;;15.95;43.81
65019;BME280;66069;51.164;-114.452;2023-01-28T11:17:25;88999.06;;;15.99;44.00
65019;BME280;66069;51.164;-114.452;2023-01-28T11:19:54;88987.59;;;15.87;43.71
65019;BME280;66069;51.164;-114.452;2023-01-28T11:22:37;88973.88;;;15.75;44.15
65019;BME280;66069;51.164;-114.452;2023-01-28T11:25:29;88998.22;;;15.91;43.86
65019;BME280;66069;51.164;-114.452;2023-01-28T11:27:57;89002.38;;;15.92;44.05
65019;BME280;66069;51.164;-114.452;2023-01-28T11:30:32;88995.88;;;15.82;43.96
65019;BME280;66069;51.164;-114.452;2023-01-28T11:36:17;88989.03;;;15.78;44.00
65019;BME280;66069;51.164;-114.452;2023-01-28T11:38:54;88989.78;;;15.78;43.71
65019;BME280;66069;51.164;-114.452;2023-01-28T11:41:32;88981.06;;;15.74;44.04
65019;BME280;66069;51.164;-114.452;2023-01-28T11:44:10;88999.25;;;15.83;43.84
65019;BME280;66069;51.164;-114.452;2023-01-28T11:51:53;89004.91;;;15.78;44.00
65019;BME280;66069;51.164;-114.452;2023-01-28T11:57:54;89010.91;;;15.75;43.73
65019;BME280;66069;51.164;-114.452;2023-01-28T12:09:00;89025.56;;;15.69;43.94
65019;BME280;66069;51.164;-114.452;2023-01-28T12:14:58;89022.13;;;15.65;43.71
65019;BME280;66069;51.164;-114.452;2023-01-28T12:17:56;89022.47;;;15.63;43.91
65019;BME280;66069;51.164;-114.452;2023-01-28T12:20:29;89030.00;;;15.61;43.94
65019;BME280;66069;51.164;-114.452;2023-01-28T12:23:12;89035.28;;;15.61;43.82
65019;BME280;66069;51.164;-114.452;2023-01-28T12:31:35;89042.78;;;15.55;43.91
65019;BME280;66069;51.164;-114.452;2023-01-28T12:34:43;89035.22;;;15.54;43.99
65019;BME280;66069;51.164;-114.452;2023-01-28T12:37:30;89038.56;;;15.51;43.87
65019;BME280;66069;51.164;-114.452;2023-01-28T12:40:07;89045.72;;;15.50;43.80
65019;BME280;66069;51.164;-114.452;2023-01-28T12:42:55;89041.88;;;15.44;43.74
65019;BME280;66069;51.164;-114.452;2023-01-28T12:45:38;89046.72;;;15.39;43.83
65019;BME280;66069;51.164;-114.452;2023-01-28T12:51:02;89019.00;;;15.25;43.94
65019;BME280;66069;51.164;-114.452;2023-01-28T12:56:19;89039.28;;;15.48;43.68
65019;BME280;66069;51.164;-114.452;2023-01-28T12:59:00;89052.69;;;15.62;43.95
65019;BME280;66069;51.164;-114.452;2023-01-28T13:07:33;89057.63;;;15.64;43.85
65019;BME280;66069;51.164;-114.452;2023-01-28T13:12:58;89064.22;;;15.80;44.30
65019;BME280;66069;51.164;-114.452;2023-01-28T13:15:25;89066.13;;;15.83;44.39
65019;BME280;66069;51.164;-114.452;2023-01-28T13:18:02;89060.53;;;15.88;44.65
65019;BME280;66069;51.164;-114.452;2023-01-28T13:20:45;89060.59;;;15.92;44.52
65019;BME280;66069;51.164;-114.452;2023-01-28T13:26:10;89047.81;;;16.01;44.96
65019;BME280;66069;51.164;-114.452;2023-01-28T13:28:37;89055.44;;;16.06;44.96
65019;BME280;66069;51.164;-114.452;2023-01-28T13:31:11;89044.03;;;16.02;45.09
65019;BME280;66069;51.164;-114.452;2023-01-28T13:34:07;89059.66;;;16.14;45.22
65019;BME280;66069;51.164;-114.452;2023-01-28T13:36:43;89011.03;;;15.89;45.24
65019;BME280;66069;51.164;-114.452;2023-01-28T13:39:14;89051.06;;;16.25;45.24
65019;BME280;66069;51.164;-114.452;2023-01-28T13:41:54;89056.03;;;16.30;45.03
65019;BME280;66069;51.164;-114.452;2023-01-28T13:44:30;89059.06;;;16.32;45.45
65019;BME280;66069;51.164;-114.452;2023-01-28T13:50:01;89060.31;;;16.45;45.58
65019;BME280;66069;51.164;-114.452;2023-01-28T13:52:58;89060.72;;;16.47;45.65
65019;BME280;66069;51.164;-114.452;2023-01-28T13:55:35;88983.88;;;15.96;45.48
65019;BME280;66069;51.164;-114.452;2023-01-28T13:58:18;89070.69;;;16.61;45.70
65019;BME280;66069;51.164;-114.452;2023-01-28T14:12:36;89083.75;;;16.87;45.81
65019;BME280;66069;51.164;-114.452;2023-01-28T14:17:47;89076.25;;;16.93;45.73
65019;BME280;66069;51.164;-114.452;2023-01-28T14:20:22;89084.66;;;17.02;45.71
65019;BME280;66069;51.164;-114.452;2023-01-28T14:22:53;89086.59;;;17.09;45.83
65019;BME280;66069;51.164;-114.452;2023-01-28T14:25:38;89087.00;;;17.14;45.80
65019;BME280;66069;51.164;-114.452;2023-01-28T14:28:10;89069.50;;;17.03;45.89
65019;BME280;66069;51.164;-114.452;2023-01-28T14:30:49;89095.38;;;17.23;45.79
65019;BME280;66069;51.164;-114.452;2023-01-28T14:33:18;89096.56;;;17.30;45.94
65019;BME280;66069;51.164;-114.452;2023-01-28T14:35:48;89080.25;;;17.28;45.97
65019;BME280;66069;51.164;-114.452;2023-01-28T14:38:18;89094.72;;;17.41;45.72
65019;BME280;66069;51.164;-114.452;2023-01-28T14:40:50;89077.25;;;17.33;45.91
65019;BME280;66069;51.164;-114.452;2023-01-28T14:43:24;89103.09;;;17.50;45.69